CheckWX is a tool to help pilots better visualize weather data.  It is not intended as a substitute for an official pre-flight weather briefing.

07:04:07 UTC

LTBN TAF
Kütahya Airport
Kütahya, Turkey
TAF LTBN 190440Z 1906/1915 VRB02KT 9999 SCT035 BKN100 TEMPO 1909/1913 -TSRA FEW030CB BKN035

Jun-19@
06:00 UTC

Jun-19 @ 06:00 UTC

Jun-19@
15:00 UTC

Jun-19 @ 15:00 UTC

TAF LTBN 190440Z 1906/1915 VRB02KT 9999 SCT035 BKN100
Wind
  • Variable at 2 KTS
Cloud Levels
  • Scattered at 3,500' AGL
  • Broken at 10,000' AGL

Jun-19@
09:00 UTC

Jun-19 @ 09:00 UTC

Jun-19@
13:00 UTC

Jun-19 @ 13:00 UTC

TEMPO 1909/1913 -TSRA FEW030CB BKN035

Temporary

Temporary Changes expected for less than half the time period

Conditions
Light Thunderstorm, Light Rain
Cloud Levels
  • Few at 3,000' AGL
  • Broken at 3,500' AGL